createdAt,value
2023-05-08T00:00:24.351Z,36.39
2023-05-08T00:01:24.352Z,36.43
2023-05-08T00:02:24.485Z,36.43
2023-05-08T00:03:24.632Z,36.47
2023-05-08T00:04:24.506Z,36.48
2023-05-08T00:05:24.504Z,36.53
2023-05-08T00:06:24.535Z,36.51
2023-05-08T00:07:24.512Z,36.52
2023-05-08T00:08:24.586Z,36.44
2023-05-08T00:09:24.611Z,36.56
2023-05-08T00:10:24.627Z,36.48
2023-05-08T00:11:24.652Z,36.52
2023-05-08T00:12:24.702Z,36.49
2023-05-08T00:13:24.786Z,36.39
2023-05-08T00:14:24.744Z,36.42
2023-05-08T00:15:24.745Z,36.45
2023-05-08T00:16:24.836Z,36.42
2023-05-08T00:17:24.824Z,36.40
2023-05-08T00:18:24.839Z,36.40
2023-05-08T00:19:24.846Z,36.36
2023-05-08T00:20:24.877Z,36.34
2023-05-08T00:21:24.898Z,36.29
2023-05-08T00:22:24.886Z,36.32
2023-05-08T00:23:24.919Z,36.29
2023-05-08T00:24:24.891Z,36.24
2023-05-08T00:25:24.939Z,36.23
2023-05-08T00:26:24.928Z,36.11
2023-05-08T00:27:24.936Z,36.13
2023-05-08T00:28:25.336Z,36.08
2023-05-08T00:29:24.962Z,36.05
2023-05-08T00:30:24.947Z,36.09
2023-05-08T00:31:24.988Z,36.00
2023-05-08T00:32:25.000Z,35.98
2023-05-08T00:33:24.937Z,35.98
2023-05-08T00:34:24.938Z,35.94
2023-05-08T00:35:24.908Z,35.94
2023-05-08T00:36:24.927Z,35.89
2023-05-08T00:37:24.940Z,35.85
2023-05-08T00:38:24.900Z,35.90
2023-05-08T00:39:24.935Z,35.96
2023-05-08T00:40:24.926Z,35.90
2023-05-08T00:41:24.931Z,35.99
2023-05-08T00:42:24.927Z,36.05
2023-05-08T00:43:24.910Z,36.19
2023-05-08T00:44:24.963Z,36.16
2023-05-08T00:45:24.975Z,36.19
2023-05-08T00:46:24.992Z,36.27
2023-05-08T00:47:25.029Z,36.32
2023-05-08T00:48:25.017Z,36.31
2023-05-08T00:49:25.054Z,36.31
2023-05-08T00:50:25.070Z,36.30
2023-05-08T00:51:25.058Z,36.23
2023-05-08T00:52:25.099Z,36.22
2023-05-08T00:53:25.106Z,36.18
2023-05-08T00:54:25.124Z,36.26
2023-05-08T00:55:25.089Z,36.17
2023-05-08T00:56:25.108Z,36.14
2023-05-08T00:57:25.139Z,36.16
2023-05-08T00:58:25.146Z,36.01
2023-05-08T00:59:25.150Z,36.01
2023-05-08T01:00:25.156Z,36.05
2023-05-08T01:01:25.241Z,36.05
2023-05-08T01:02:25.230Z,36.05
2023-05-08T01:03:25.283Z,36.01
2023-05-08T01:04:25.168Z,35.99
2023-05-08T01:05:25.174Z,35.95
2023-05-08T01:06:25.190Z,35.95
2023-05-08T01:07:25.180Z,35.95
2023-05-08T01:08:25.204Z,35.93
2023-05-08T01:09:25.200Z,35.86
2023-05-08T01:10:25.200Z,35.82
2023-05-08T01:11:25.188Z,35.80
2023-05-08T01:12:25.212Z,35.75
2023-05-08T01:13:25.315Z,35.76
2023-05-08T01:14:25.192Z,35.74
2023-05-08T01:15:25.170Z,35.72
2023-05-08T01:16:25.214Z,35.67
2023-05-08T01:17:25.202Z,35.63
2023-05-08T01:18:25.197Z,35.69
2023-05-08T01:19:25.204Z,35.69
2023-05-08T01:20:25.205Z,35.62
2023-05-08T01:21:25.243Z,35.61
2023-05-08T01:22:25.260Z,35.59
2023-05-08T01:23:25.244Z,35.59
2023-05-08T01:24:25.276Z,35.56
2023-05-08T01:25:25.335Z,35.58
2023-05-08T01:26:25.349Z,35.57
2023-05-08T01:27:25.418Z,35.53
2023-05-08T01:28:25.442Z,35.53
2023-05-08T01:29:25.469Z,35.62
2023-05-08T01:30:25.526Z,35.58
2023-05-08T01:31:25.534Z,35.55
2023-05-08T01:32:25.651Z,35.58
2023-05-08T01:33:25.770Z,35.58
2023-05-08T01:34:25.709Z,35.55
2023-05-08T01:35:25.711Z,35.58
2023-05-08T01:36:25.758Z,35.67
2023-05-08T01:37:25.755Z,35.67
2023-05-08T01:38:25.796Z,35.64
2023-05-08T01:39:25.825Z,35.68
2023-05-08T01:40:25.834Z,35.72
2023-05-08T01:41:25.800Z,35.72
2023-05-08T01:42:25.821Z,35.74
2023-05-08T01:43:25.810Z,35.79
2023-05-08T01:44:25.820Z,35.82
2023-05-08T01:45:25.811Z,35.86
2023-05-08T01:46:25.829Z,35.88
2023-05-08T01:47:25.834Z,35.91
2023-05-08T01:48:25.811Z,35.89
2023-05-08T01:49:25.807Z,35.91
2023-05-08T01:50:25.822Z,35.92
2023-05-08T01:51:25.818Z,35.94
2023-05-08T01:52:25.824Z,36.00
2023-05-08T01:53:25.847Z,35.91
2023-05-08T01:54:25.821Z,35.91
2023-05-08T01:55:25.832Z,35.91
2023-05-08T01:56:25.823Z,35.92
2023-05-08T01:57:25.792Z,35.91
2023-05-08T01:58:25.793Z,35.87
2023-05-08T01:59:25.806Z,35.88
2023-05-08T02:00:25.786Z,35.83
2023-05-08T02:01:26.086Z,35.83
2023-05-08T02:02:25.841Z,35.82
2023-05-08T02:03:25.878Z,35.80
2023-05-08T02:04:25.882Z,35.74
2023-05-08T02:05:25.836Z,35.75
2023-05-08T02:06:25.881Z,35.73
2023-05-08T02:07:25.887Z,35.71
2023-05-08T02:08:25.903Z,35.70
2023-05-08T02:09:25.922Z,35.64
2023-05-08T02:10:25.954Z,35.68
2023-05-08T02:11:26.144Z,35.68
2023-05-08T02:12:26.047Z,35.62
2023-05-08T02:13:26.105Z,35.67
2023-05-08T02:14:26.830Z,35.64
2023-05-08T02:15:26.149Z,35.66
2023-05-08T02:16:26.189Z,35.64
2023-05-08T02:17:26.246Z,35.63
2023-05-08T02:18:26.270Z,35.68
2023-05-08T02:19:26.285Z,35.67
2023-05-08T02:20:26.361Z,35.63
2023-05-08T02:21:26.366Z,35.61
2023-05-08T02:22:26.424Z,35.63
2023-05-08T02:23:26.405Z,35.67
2023-05-08T02:24:26.439Z,35.60
2023-05-08T02:25:26.443Z,35.63
2023-05-08T02:26:26.462Z,35.63
2023-05-08T02:27:26.504Z,35.63
2023-05-08T02:28:26.514Z,35.66
2023-05-08T02:29:26.529Z,35.66
2023-05-08T02:30:26.544Z,35.66
2023-05-08T02:31:26.610Z,35.73
2023-05-08T02:32:26.608Z,35.70
2023-05-08T02:33:26.607Z,35.76
2023-05-08T02:34:26.598Z,35.73
2023-05-08T02:35:26.591Z,35.76
2023-05-08T02:36:26.638Z,35.75
2023-05-08T02:37:26.588Z,35.76
2023-05-08T02:38:26.609Z,35.80
2023-05-08T02:39:26.616Z,35.83
2023-05-08T02:40:26.620Z,35.84
2023-05-08T02:41:26.616Z,35.85
2023-05-08T02:42:26.619Z,35.88
2023-05-08T02:43:26.620Z,35.92
2023-05-08T02:44:26.600Z,35.94
2023-05-08T02:45:26.630Z,35.92
2023-05-08T02:46:26.655Z,35.90
2023-05-08T02:47:26.630Z,35.96
2023-05-08T02:48:26.651Z,35.92
2023-05-08T02:49:26.653Z,35.94
2023-05-08T02:50:26.650Z,35.94
2023-05-08T02:51:26.628Z,35.99
2023-05-08T02:52:26.650Z,35.99
2023-05-08T02:53:26.647Z,36.04
2023-05-08T02:54:26.620Z,36.08
2023-05-08T02:55:26.624Z,36.09
2023-05-08T02:56:26.638Z,36.11
2023-05-08T02:57:26.627Z,36.08
2023-05-08T02:58:26.612Z,36.06
2023-05-08T02:59:26.637Z,36.13
2023-05-08T03:00:26.608Z,36.12
2023-05-08T03:01:26.627Z,36.16
2023-05-08T03:02:26.692Z,36.09
2023-05-08T03:03:26.765Z,36.08
2023-05-08T03:04:26.649Z,36.07
2023-05-08T03:05:26.664Z,36.07
2023-05-08T03:06:26.704Z,36.07
2023-05-08T03:07:26.731Z,36.09
2023-05-08T03:08:26.810Z,36.01
2023-05-08T03:09:26.846Z,35.97
2023-05-08T03:10:26.883Z,35.97
2023-05-08T03:11:26.916Z,35.94
2023-05-08T03:12:26.943Z,35.94
2023-05-08T03:13:27.136Z,35.91
2023-05-08T03:14:27.044Z,35.91
2023-05-08T03:15:27.078Z,35.87
2023-05-08T03:16:27.212Z,35.81
2023-05-08T03:17:27.269Z,35.77
2023-05-08T03:18:27.232Z,35.82
2023-05-08T03:19:27.291Z,35.76
2023-05-08T03:20:27.305Z,35.84
2023-05-08T03:21:27.438Z,35.78
2023-05-08T03:22:27.422Z,35.77
2023-05-08T03:23:27.512Z,35.76
2023-05-08T03:24:27.562Z,35.77
2023-05-08T03:25:27.633Z,35.76
2023-05-08T03:26:27.685Z,35.77
2023-05-08T03:27:27.745Z,35.74
2023-05-08T03:28:27.761Z,35.70
2023-05-08T03:29:27.825Z,35.72
2023-05-08T03:30:27.876Z,35.76
2023-05-08T03:31:28.066Z,35.69
2023-05-08T03:32:27.986Z,35.71
2023-05-08T03:33:28.053Z,35.69
2023-05-08T03:34:28.088Z,35.68
2023-05-08T03:35:28.137Z,35.65
2023-05-08T03:36:28.200Z,35.68
2023-05-08T03:37:28.278Z,35.67
2023-05-08T03:38:28.332Z,35.65
2023-05-08T03:39:28.409Z,35.68
2023-05-08T03:40:28.465Z,35.62
2023-05-08T03:41:28.535Z,35.67
2023-05-08T03:42:28.645Z,35.62
2023-05-08T03:43:28.659Z,35.66
2023-05-08T03:44:28.707Z,35.63
2023-05-08T03:45:28.735Z,35.63
2023-05-08T03:46:28.836Z,35.60
2023-05-08T03:47:28.919Z,35.59
2023-05-08T03:48:28.938Z,35.58
2023-05-08T03:49:29.004Z,35.58
2023-05-08T03:50:29.062Z,35.58
2023-05-08T03:51:29.173Z,35.58
2023-05-08T03:52:29.179Z,35.54
2023-05-08T03:53:29.265Z,35.54
2023-05-08T03:54:29.327Z,35.49
2023-05-08T03:55:29.406Z,35.49
2023-05-08T03:56:29.457Z,35.47
2023-05-08T03:57:29.528Z,35.53
2023-05-08T03:58:29.574Z,35.57
2023-05-08T03:59:29.665Z,35.58
2023-05-08T04:00:29.707Z,35.59
2023-05-08T04:01:29.783Z,35.54
2023-05-08T04:02:29.909Z,35.51
2023-05-08T04:03:29.981Z,35.51
2023-05-08T04:04:29.976Z,35.51
2023-05-08T04:05:30.044Z,35.50
2023-05-08T04:06:32.998Z,35.49
2023-05-08T04:07:31.086Z,35.51
2023-05-08T04:08:30.095Z,35.50
2023-05-08T04:09:30.088Z,35.48
2023-05-08T04:10:30.060Z,35.45
2023-05-08T04:11:30.057Z,35.45
2023-05-08T04:12:30.042Z,35.48
2023-05-08T04:13:30.066Z,35.39
2023-05-08T04:14:30.015Z,35.40
2023-05-08T04:15:30.047Z,35.38
2023-05-08T04:16:30.110Z,35.43
2023-05-08T04:17:30.218Z,35.41
2023-05-08T04:18:30.207Z,35.33
2023-05-08T04:19:30.272Z,35.42
2023-05-08T04:20:30.340Z,35.43
2023-05-08T04:21:30.407Z,35.39
2023-05-08T04:22:30.440Z,35.39
2023-05-08T04:23:30.477Z,35.36
2023-05-08T04:24:30.556Z,35.36
2023-05-08T04:25:30.650Z,35.39
2023-05-08T04:26:30.706Z,35.41
2023-05-08T04:27:30.762Z,35.40
2023-05-08T04:28:30.811Z,35.41
2023-05-08T04:29:30.866Z,35.42
2023-05-08T04:30:30.954Z,35.41
2023-05-08T04:31:31.015Z,35.42
2023-05-08T04:32:31.102Z,35.43
2023-05-08T04:33:31.137Z,35.43
2023-05-08T04:34:31.166Z,35.40
2023-05-08T04:35:31.209Z,35.46
2023-05-08T04:36:31.233Z,35.52
2023-05-08T04:37:31.254Z,35.54
2023-05-08T04:38:31.260Z,35.55
2023-05-08T04:39:31.246Z,35.59
2023-05-08T04:40:31.203Z,35.61
2023-05-08T04:41:31.310Z,35.62
2023-05-08T04:42:31.200Z,35.67
2023-05-08T04:43:31.231Z,35.66
2023-05-08T04:44:31.186Z,35.66
2023-05-08T04:45:31.224Z,35.76
2023-05-08T04:46:31.237Z,35.73
2023-05-08T04:47:31.302Z,35.74
2023-05-08T04:48:31.221Z,35.71
2023-05-08T04:49:31.219Z,35.72
2023-05-08T04:50:31.213Z,35.67
2023-05-08T04:51:31.261Z,35.67
2023-05-08T04:52:31.273Z,35.67
2023-05-08T04:53:31.266Z,35.69
2023-05-08T04:54:31.293Z,35.71
2023-05-08T04:55:31.279Z,35.66
2023-05-08T04:56:31.330Z,35.64
2023-05-08T04:57:31.409Z,35.66
2023-05-08T04:58:31.424Z,35.67
2023-05-08T04:59:31.457Z,35.66
2023-05-08T05:00:38.493Z,35.66
2023-05-08T05:01:31.539Z,35.60
2023-05-08T05:02:31.503Z,35.65
2023-05-08T05:03:31.562Z,35.62
2023-05-08T05:04:31.450Z,35.61
2023-05-08T05:05:31.441Z,35.60
2023-05-08T05:06:31.452Z,35.60
2023-05-08T05:07:31.438Z,35.64
2023-05-08T05:08:31.435Z,35.61
2023-05-08T05:09:31.439Z,35.57
2023-05-08T05:10:31.436Z,35.62
2023-05-08T05:11:31.409Z,35.60
2023-05-08T05:12:31.407Z,35.66
2023-05-08T05:13:31.451Z,35.71
2023-05-08T05:14:31.401Z,35.71
2023-05-08T05:15:31.383Z,35.78
2023-05-08T05:16:31.449Z,35.73
2023-05-08T05:17:31.456Z,35.71
2023-05-08T05:18:31.342Z,35.80
2023-05-08T05:19:31.424Z,35.76
2023-05-08T05:20:31.369Z,35.74
2023-05-08T05:21:31.340Z,35.79
2023-05-08T05:22:31.355Z,35.75
2023-05-08T05:23:31.470Z,35.78
2023-05-08T05:24:31.347Z,35.79
2023-05-08T05:25:31.351Z,35.78
2023-05-08T05:26:31.340Z,35.76
2023-05-08T05:27:31.333Z,35.76
2023-05-08T05:28:31.306Z,35.75
2023-05-08T05:29:31.302Z,35.79
2023-05-08T05:30:31.307Z,35.77
2023-05-08T05:31:31.269Z,35.77
2023-05-08T05:32:31.311Z,35.70
2023-05-08T05:33:31.402Z,35.70
2023-05-08T05:34:31.473Z,35.83
2023-05-08T05:35:31.241Z,36.83
2023-05-08T05:36:31.276Z,36.56
2023-05-08T05:37:31.280Z,38.29
2023-05-08T05:38:31.249Z,39.72
2023-05-08T05:39:31.456Z,42.11
2023-05-08T05:40:31.384Z,39.58
2023-05-08T05:41:32.390Z,39.24
2023-05-08T05:42:31.501Z,39.19
2023-05-08T05:43:31.532Z,39.16
2023-05-08T05:44:31.611Z,39.47
2023-05-08T05:45:38.638Z,41.04
2023-05-08T05:46:31.690Z,41.25
2023-05-08T05:47:31.667Z,40.50
2023-05-08T05:48:31.659Z,41.59
2023-05-08T05:49:31.631Z,41.49
2023-05-08T05:50:31.636Z,40.79
2023-05-08T05:51:31.599Z,40.23
2023-05-08T05:52:31.637Z,39.98
2023-05-08T05:53:31.603Z,40.19
2023-05-08T05:54:31.602Z,40.85
2023-05-08T05:55:31.580Z,40.12
2023-05-08T05:56:31.606Z,40.11
2023-05-08T05:57:31.597Z,40.47
2023-05-08T05:58:31.573Z,40.65
2023-05-08T05:59:31.970Z,41.64
2023-05-08T06:00:31.662Z,42.02
2023-05-08T06:01:31.538Z,41.02
2023-05-08T06:02:31.613Z,39.87
2023-05-08T06:03:31.629Z,40.54
2023-05-08T06:04:31.659Z,39.63
2023-05-08T06:05:31.669Z,39.62
2023-05-08T06:06:31.502Z,38.90
2023-05-08T06:07:31.556Z,39.06
2023-05-08T06:08:31.519Z,39.10
2023-05-08T06:09:31.985Z,39.63
2023-05-08T06:10:31.797Z,38.96
2023-05-08T06:11:31.686Z,40.09
2023-05-08T06:12:31.700Z,38.83
2023-05-08T06:13:31.893Z,39.25
2023-05-08T06:14:31.703Z,38.94
2023-05-08T06:15:31.714Z,39.14
2023-05-08T06:16:31.805Z,39.03
2023-05-08T06:17:31.758Z,39.79
2023-05-08T06:18:31.689Z,40.33
2023-05-08T06:19:32.758Z,40.19
2023-05-08T06:20:31.667Z,39.76
2023-05-08T06:21:31.682Z,40.06
2023-05-08T06:22:31.666Z,39.89
2023-05-08T06:23:31.741Z,39.91
2023-05-08T06:24:31.753Z,40.62
2023-05-08T06:25:31.813Z,39.88
2023-05-08T06:26:31.849Z,39.28
2023-05-08T06:27:32.448Z,39.29
2023-05-08T06:28:31.887Z,38.89
2023-05-08T06:29:31.933Z,39.53
2023-05-08T06:30:31.969Z,40.72
2023-05-08T06:31:32.013Z,39.89
2023-05-08T06:32:32.067Z,39.85
2023-05-08T06:33:32.065Z,39.42
2023-05-08T06:34:32.567Z,39.50
2023-05-08T06:35:32.086Z,39.49
2023-05-08T06:36:32.121Z,39.67
2023-05-08T06:37:32.139Z,39.79
2023-05-08T06:38:32.182Z,38.48
2023-05-08T06:39:32.269Z,38.33
2023-05-08T06:40:32.263Z,37.91
2023-05-08T06:41:32.265Z,37.93
2023-05-08T06:42:32.309Z,38.08
2023-05-08T06:43:32.329Z,38.19
2023-05-08T06:44:32.354Z,37.88
2023-05-08T06:45:32.523Z,37.92
2023-05-08T06:46:32.506Z,37.81
2023-05-08T06:47:33.062Z,38.04
2023-05-08T06:48:32.599Z,38.18
2023-05-08T06:49:33.049Z,37.91
2023-05-08T06:50:32.666Z,37.73
2023-05-08T06:51:32.716Z,37.89
2023-05-08T06:52:32.816Z,37.78
2023-05-08T06:53:33.597Z,37.92
2023-05-08T06:54:34.055Z,38.09
2023-05-08T06:55:32.891Z,38.48
2023-05-08T06:56:32.808Z,38.47
2023-05-08T06:57:32.770Z,38.25
2023-05-08T06:58:32.777Z,38.81
2023-05-08T06:59:32.736Z,38.64
2023-05-08T07:00:32.741Z,38.99
2023-05-08T07:01:32.724Z,38.75
2023-05-08T07:02:32.771Z,38.99
2023-05-08T07:03:32.668Z,39.21
2023-05-08T07:04:32.709Z,39.06
2023-05-08T07:05:32.662Z,38.91
2023-05-08T07:06:32.675Z,39.48
2023-05-08T07:07:32.704Z,39.12
2023-05-08T07:08:32.683Z,38.84
2023-05-08T07:09:32.650Z,38.42
2023-05-08T07:10:32.660Z,38.72
2023-05-08T07:11:32.663Z,38.71
2023-05-08T07:12:33.486Z,38.87
2023-05-08T07:13:32.789Z,39.65
2023-05-08T07:14:32.784Z,38.71
2023-05-08T07:15:32.870Z,39.36
2023-05-08T07:16:33.006Z,39.26
2023-05-08T07:17:32.943Z,38.72
2023-05-08T07:18:33.020Z,39.17
2023-05-08T07:19:33.128Z,38.92
2023-05-08T07:20:33.118Z,39.09
2023-05-08T07:21:33.189Z,38.93
2023-05-08T07:22:33.296Z,39.06
2023-05-08T07:23:33.296Z,39.17
2023-05-08T07:24:33.534Z,39.07
2023-05-08T07:25:33.499Z,39.27
2023-05-08T07:26:33.494Z,38.87
2023-05-08T07:27:33.556Z,38.91
2023-05-08T07:28:33.671Z,39.04
2023-05-08T07:29:33.663Z,38.86
2023-05-08T07:30:33.728Z,39.72
2023-05-08T07:31:33.859Z,38.97
2023-05-08T07:32:33.916Z,38.95
2023-05-08T07:33:33.935Z,38.51
2023-05-08T07:34:33.978Z,38.78
2023-05-08T07:35:34.524Z,38.65
2023-05-08T07:36:34.118Z,38.28
2023-05-08T07:37:34.156Z,38.09
2023-05-08T07:38:34.217Z,38.02
2023-05-08T07:39:34.514Z,38.13
2023-05-08T07:40:34.333Z,38.41
2023-05-08T07:41:34.397Z,39.21
2023-05-08T07:42:34.449Z,38.33
2023-05-08T07:43:34.491Z,37.81
2023-05-08T07:44:40.618Z,37.63
2023-05-08T07:45:35.542Z,37.88
2023-05-08T07:46:34.598Z,37.88
2023-05-08T07:47:34.602Z,37.60
2023-05-08T07:48:34.542Z,37.59
2023-05-08T07:49:34.539Z,37.55
2023-05-08T07:50:34.562Z,37.73
2023-05-08T07:51:34.519Z,37.85
2023-05-08T07:52:34.498Z,37.93
2023-05-08T07:53:34.522Z,38.33
2023-05-08T07:54:34.583Z,38.76
2023-05-08T07:55:35.047Z,38.16
2023-05-08T07:56:34.668Z,38.34
2023-05-08T07:57:34.684Z,38.16
2023-05-08T07:58:34.721Z,38.39
2023-05-08T07:59:34.754Z,38.03
2023-05-08T08:00:35.035Z,38.04
2023-05-08T08:01:34.846Z,37.61
2023-05-08T08:02:34.885Z,37.28
2023-05-08T08:03:34.951Z,36.98
2023-05-08T08:04:35.054Z,36.96
2023-05-08T08:05:35.034Z,36.81
2023-05-08T08:06:35.018Z,36.91
2023-05-08T08:07:35.041Z,36.91
2023-05-08T08:08:35.091Z,37.20
2023-05-08T08:09:35.202Z,37.29
2023-05-08T08:10:35.256Z,37.22
2023-05-08T08:11:35.266Z,37.63
2023-05-08T08:12:35.350Z,37.43
2023-05-08T08:13:35.458Z,37.48
2023-05-08T08:14:35.431Z,37.53
2023-05-08T08:15:35.524Z,37.57
2023-05-08T08:16:35.587Z,37.63
2023-05-08T08:17:35.682Z,37.96
2023-05-08T08:18:35.732Z,37.88
2023-05-08T08:19:35.873Z,38.44
2023-05-08T08:20:35.804Z,38.02
2023-05-08T08:21:35.884Z,38.14
2023-05-08T08:22:35.949Z,38.48
2023-05-08T08:23:36.083Z,38.52
2023-05-08T08:24:36.126Z,38.99
2023-05-08T08:25:36.135Z,38.56
2023-05-08T08:26:36.191Z,38.42
2023-05-08T08:27:36.300Z,38.64
2023-05-08T08:28:36.306Z,38.38
2023-05-08T08:29:36.402Z,38.81
2023-05-08T08:30:36.687Z,39.29
2023-05-08T08:31:36.569Z,39.02
2023-05-08T08:32:36.619Z,38.93
2023-05-08T08:33:36.606Z,38.63
2023-05-08T08:34:36.701Z,38.51
2023-05-08T08:35:36.852Z,38.49
2023-05-08T08:36:36.781Z,38.38
2023-05-08T08:37:36.826Z,38.27
2023-05-08T08:38:36.801Z,38.19
2023-05-08T08:39:36.802Z,38.48
2023-05-08T08:40:37.035Z,38.57
2023-05-08T08:41:36.850Z,38.43
2023-05-08T08:42:37.037Z,38.32
2023-05-08T08:43:36.858Z,39.32
2023-05-08T08:44:38.217Z,38.69
2023-05-08T08:45:36.885Z,38.57
2023-05-08T08:46:36.917Z,39.71
2023-05-08T08:47:36.918Z,39.43
2023-05-08T08:48:36.939Z,39.29
2023-05-08T08:49:36.894Z,38.92
2023-05-08T08:50:36.934Z,38.58
2023-05-08T08:51:37.042Z,40.33
2023-05-08T08:52:36.951Z,39.10
2023-05-08T08:53:36.970Z,39.72
2023-05-08T08:54:36.950Z,38.99
2023-05-08T08:55:37.064Z,38.76
2023-05-08T08:56:37.049Z,38.43
2023-05-08T08:57:37.024Z,39.40
2023-05-08T08:58:38.802Z,39.88
2023-05-08T08:59:37.092Z,38.84
2023-05-08T09:00:37.055Z,38.68
2023-05-08T09:01:37.045Z,38.60
2023-05-08T09:02:37.106Z,37.54
2023-05-08T09:03:37.128Z,37.33
2023-05-08T09:04:37.000Z,37.06
2023-05-08T09:05:37.069Z,36.68
2023-05-08T09:06:37.102Z,36.80
2023-05-08T09:07:37.402Z,37.12
2023-05-08T09:08:37.175Z,37.44
2023-05-08T09:09:37.246Z,37.96
2023-05-08T09:10:37.229Z,37.21
2023-05-08T09:11:37.576Z,37.26
2023-05-08T09:12:37.603Z,37.54
2023-05-08T09:13:37.344Z,37.37
2023-05-08T09:14:37.386Z,37.27
2023-05-08T09:15:37.671Z,37.07
2023-05-08T09:16:37.616Z,37.14
2023-05-08T09:17:37.447Z,36.94
2023-05-08T09:18:37.418Z,36.68
2023-05-08T09:19:37.461Z,37.02
2023-05-08T09:20:37.621Z,37.12
2023-05-08T09:21:37.488Z,37.22
2023-05-08T09:22:37.520Z,36.63
2023-05-08T09:23:37.626Z,36.66
2023-05-08T09:24:37.577Z,36.71
2023-05-08T09:25:37.553Z,36.90
2023-05-08T09:26:37.604Z,36.79
2023-05-08T09:27:37.678Z,36.87
2023-05-08T09:28:37.690Z,37.04
2023-05-08T09:29:37.740Z,37.29
2023-05-08T09:30:37.753Z,37.64
2023-05-08T09:31:37.828Z,37.33
2023-05-08T09:32:37.834Z,37.25
2023-05-08T09:33:37.807Z,37.14
2023-05-08T09:34:37.881Z,37.36
2023-05-08T09:35:37.880Z,37.25
2023-05-08T09:36:38.058Z,37.94
2023-05-08T09:37:37.964Z,37.62
2023-05-08T09:38:38.015Z,38.43
2023-05-08T09:39:38.099Z,38.12
2023-05-08T09:40:38.064Z,38.03
2023-05-08T09:41:38.083Z,38.23
2023-05-08T09:42:38.064Z,38.13
2023-05-08T09:43:38.157Z,37.74
2023-05-08T09:44:38.091Z,37.74
2023-05-08T09:45:38.150Z,38.01
2023-05-08T09:46:38.089Z,38.17
2023-05-08T09:47:38.119Z,38.42
2023-05-08T09:48:38.114Z,37.93
2023-05-08T09:49:38.111Z,38.41
2023-05-08T09:50:38.124Z,38.32
2023-05-08T09:51:38.133Z,38.20
2023-05-08T09:52:38.202Z,37.78
2023-05-08T09:53:38.103Z,37.68
2023-05-08T09:54:38.122Z,37.66
2023-05-08T09:55:38.177Z,37.28
2023-05-08T09:56:38.183Z,37.44
2023-05-08T09:57:38.197Z,37.21
2023-05-08T09:58:38.154Z,37.14
2023-05-08T09:59:38.134Z,37.23
2023-05-08T10:00:38.156Z,36.87
2023-05-08T10:01:38.714Z,36.84
2023-05-08T10:02:38.190Z,36.98
2023-05-08T10:03:38.213Z,36.81
2023-05-08T10:04:38.281Z,36.67
2023-05-08T10:05:38.191Z,36.57
2023-05-08T10:06:38.590Z,36.34
2023-05-08T10:07:38.247Z,36.44
2023-05-08T10:08:38.247Z,36.41
2023-05-08T10:09:49.880Z,36.43
2023-05-08T10:10:39.663Z,36.36
2023-05-08T10:11:38.353Z,36.34
2023-05-08T10:12:38.339Z,36.15
2023-05-08T10:13:38.328Z,36.10
2023-05-08T10:14:38.432Z,36.47
2023-05-08T10:15:38.265Z,36.25
2023-05-08T10:16:38.287Z,36.62
2023-05-08T10:17:38.251Z,36.34
2023-05-08T10:18:38.282Z,36.75
2023-05-08T10:19:38.264Z,36.53
2023-05-08T10:20:38.422Z,36.72
2023-05-08T10:21:38.348Z,36.20
2023-05-08T10:22:38.396Z,36.09
2023-05-08T10:23:38.469Z,36.44
2023-05-08T10:24:38.546Z,36.64
2023-05-08T10:25:38.595Z,36.44
2023-05-08T10:26:39.080Z,36.49
2023-05-08T10:27:38.779Z,36.63
2023-05-08T10:28:38.832Z,36.36
2023-05-08T10:29:38.812Z,36.78
2023-05-08T10:30:38.864Z,36.25
2023-05-08T10:31:39.138Z,36.20
2023-05-08T10:32:38.982Z,36.10
2023-05-08T10:33:38.998Z,35.98
2023-05-08T10:34:39.104Z,36.46
2023-05-08T10:35:39.114Z,36.68
2023-05-08T10:36:39.600Z,36.60
2023-05-08T10:37:39.241Z,36.16
2023-05-08T10:38:39.209Z,35.56
2023-05-08T10:39:39.176Z,35.89
2023-05-08T10:40:39.193Z,36.22
2023-05-08T10:41:39.603Z,36.58
2023-05-08T10:42:39.206Z,36.56
2023-05-08T10:43:39.298Z,36.45
2023-05-08T10:44:39.206Z,36.27
2023-05-08T10:45:39.193Z,36.06
2023-05-08T10:46:39.272Z,36.09
2023-05-08T10:47:39.198Z,36.58
2023-05-08T10:48:39.200Z,36.18
2023-05-08T10:49:39.169Z,36.65
2023-05-08T10:50:39.205Z,36.16
2023-05-08T10:51:39.194Z,36.15
2023-05-08T10:52:39.174Z,36.46
2023-05-08T10:53:39.213Z,35.69
2023-05-08T10:54:39.235Z,35.55
2023-05-08T10:55:39.240Z,35.80
2023-05-08T10:56:39.250Z,35.51
2023-05-08T10:57:39.306Z,39.34
2023-05-08T10:58:39.384Z,35.86
2023-05-08T10:59:39.401Z,36.06
2023-05-08T11:00:39.468Z,36.24
2023-05-08T11:01:39.501Z,36.35
2023-05-08T11:02:39.567Z,35.77
2023-05-08T11:03:39.750Z,35.87
2023-05-08T11:04:39.669Z,35.75
2023-05-08T11:05:39.657Z,35.81
2023-05-08T11:06:39.689Z,37.14
2023-05-08T11:07:40.277Z,35.93
2023-05-08T11:08:40.222Z,36.39
2023-05-08T11:09:39.864Z,37.08
2023-05-08T11:10:39.888Z,35.86
2023-05-08T11:11:39.914Z,36.03
2023-05-08T11:12:40.152Z,36.12
2023-05-08T11:13:40.023Z,36.27
2023-05-08T11:14:40.238Z,36.51
2023-05-08T11:15:40.139Z,36.46
2023-05-08T11:16:40.359Z,36.42
2023-05-08T11:17:40.624Z,36.43
2023-05-08T11:18:49.109Z,36.48
2023-05-08T11:19:41.521Z,36.52
2023-05-08T11:20:40.303Z,36.44
2023-05-08T11:21:40.330Z,36.63
2023-05-08T11:22:40.666Z,36.63
2023-05-08T11:23:40.297Z,36.59
2023-05-08T11:24:40.311Z,36.54
2023-05-08T11:25:40.273Z,36.66
2023-05-08T11:26:40.265Z,36.64
2023-05-08T11:27:40.625Z,36.44
2023-05-08T11:28:40.279Z,37.16
2023-05-08T11:29:40.353Z,36.59
2023-05-08T11:30:40.414Z,36.58
2023-05-08T11:31:40.525Z,36.42
2023-05-08T11:32:40.839Z,36.25
2023-05-08T11:33:40.559Z,36.28
2023-05-08T11:34:40.616Z,36.32
2023-05-08T11:35:40.686Z,36.27
2023-05-08T11:36:40.713Z,36.40
2023-05-08T11:37:41.103Z,36.27
2023-05-08T11:38:40.846Z,36.22
2023-05-08T11:39:40.861Z,36.20
2023-05-08T11:40:40.912Z,36.26
2023-05-08T11:41:40.968Z,36.17
2023-05-08T11:42:41.133Z,36.29
2023-05-08T11:43:41.101Z,36.29
2023-05-08T11:44:41.149Z,36.20
2023-05-08T11:45:41.186Z,36.14
2023-05-08T11:46:41.318Z,36.15
2023-05-08T11:47:41.758Z,36.04
2023-05-08T11:48:41.341Z,36.04
2023-05-08T11:49:41.409Z,36.04
2023-05-08T11:50:41.455Z,35.92
2023-05-08T11:51:41.542Z,36.02
2023-05-08T11:52:41.610Z,35.88
2023-05-08T11:53:41.675Z,35.92
2023-05-08T11:54:41.781Z,35.95
2023-05-08T11:55:41.790Z,35.84
2023-05-08T11:56:41.884Z,35.87
2023-05-08T11:57:41.927Z,35.87
2023-05-08T11:58:41.990Z,35.87
2023-05-08T11:59:42.059Z,35.84
2023-05-08T12:00:42.155Z,35.81
2023-05-08T12:01:43.433Z,35.78
2023-05-08T12:02:42.326Z,35.84
2023-05-08T12:03:42.328Z,35.78
2023-05-08T12:04:42.199Z,35.85
2023-05-08T12:05:42.148Z,35.76
2023-05-08T12:06:42.146Z,35.78
2023-05-08T12:07:42.143Z,35.73
2023-05-08T12:08:42.117Z,35.72
2023-05-08T12:09:42.134Z,35.73
2023-05-08T12:10:42.141Z,35.68
2023-05-08T12:11:42.149Z,35.70
2023-05-08T12:12:42.227Z,35.59
2023-05-08T12:13:42.116Z,35.49
2023-05-08T12:14:42.093Z,35.39
2023-05-08T12:15:42.097Z,35.41
2023-05-08T12:16:42.103Z,35.29
2023-05-08T12:17:42.176Z,35.25
2023-05-08T12:18:42.060Z,35.25
2023-05-08T12:19:42.066Z,35.26
2023-05-08T12:20:42.075Z,35.21
2023-05-08T12:21:42.093Z,35.17
2023-05-08T12:22:42.145Z,35.18
2023-05-08T12:23:42.236Z,35.14
2023-05-08T12:24:42.292Z,35.08
2023-05-08T12:25:42.329Z,35.05
2023-05-08T12:26:42.399Z,35.11
2023-05-08T12:27:42.431Z,35.10
2023-05-08T12:28:42.459Z,35.14
2023-05-08T12:29:42.481Z,35.11
2023-05-08T12:30:42.520Z,35.08
2023-05-08T12:31:42.601Z,35.04
2023-05-08T12:32:42.661Z,34.97
2023-05-08T12:33:42.678Z,34.95
2023-05-08T12:34:42.748Z,34.95
2023-05-08T12:35:42.763Z,34.90
2023-05-08T12:36:42.833Z,34.91
2023-05-08T12:37:42.870Z,34.78
2023-05-08T12:38:42.941Z,34.80
2023-05-08T12:39:42.970Z,34.75
2023-05-08T12:40:43.030Z,34.74
2023-05-08T12:41:43.074Z,34.78
2023-05-08T12:42:43.097Z,34.74
2023-05-08T12:43:43.181Z,34.70
2023-05-08T12:44:43.221Z,34.64
2023-05-08T12:45:43.308Z,34.67
2023-05-08T12:46:43.324Z,35.04
2023-05-08T12:47:43.384Z,35.19
2023-05-08T12:48:43.375Z,38.00
2023-05-08T12:49:43.376Z,40.21
2023-05-08T12:50:43.406Z,41.80
2023-05-08T12:51:43.455Z,41.83
2023-05-08T12:52:43.398Z,42.80